.
WxDataArchive / Data Records for 2007-12-03
2007-12-02 December 2007 2007-12-04

Data Records for Monday, 03 December 2007

Time	Temp	Chill	HIndex	Humid	Dewpt	 Wind 	HiWind	WindDir	Rain 	Barom 
-----	----	-----	------	-----	-----	------	------	-------	-----	----- 
00:00	33.8	27.7	33.8	79	28.0	7	17	270	0.00	29.807 
00:05	33.5	28.8	33.5	80	28.0	5	11	270	0.00	29.803 
00:10	33.4	27.9	33.4	79	27.6	6	12	270	0.00	29.808 
00:15	33.4	28.7	33.4	79	27.6	5	12	270	0.00	29.815 
00:20	33.2	29.5	33.2	80	27.7	4	7	270	0.00	29.807 
00:25	33.2	27.7	33.2	79	27.4	6	15	270	0.00	29.819 
00:30	33.1	27.5	33.1	78	27.0	6	14	270	0.00	29.820 
00:35	33.1	28.4	33.1	79	27.3	5	11	270	0.00	29.825 
00:40	32.9	28.1	32.9	79	27.1	5	9	270	0.00	29.832 
00:45	32.9	29.1	32.9	79	27.1	4	7	270	0.00	29.834 
00:50	32.9	29.1	32.9	79	27.1	4	12	270	0.00	29.835 
00:55	32.9	28.1	32.9	78	26.8	5	10	270	0.00	29.837 
01:00	32.9	28.1	32.9	78	26.8	5	12	270	0.00	29.838 
01:05	32.8	28.0	32.8	78	26.7	5	10	270	0.00	29.848 
01:10	32.8	28.0	32.8	78	26.7	5	12	270	0.00	29.844 
01:15	32.7	28.9	32.7	78	26.6	4	7	270	0.00	29.848 
01:20	32.5	27.7	32.5	78	26.4	5	11	270	0.00	29.850 
01:25	32.5	27.7	32.5	78	26.4	5	11	270	0.00	29.852 
01:30	32.5	28.7	32.5	78	26.4	4	9	270	0.00	29.854 
01:35	32.4	28.5	32.4	78	26.3	4	11	270	0.00	29.865 
01:40	32.2	26.5	32.2	78	26.1	6	17	270	0.00	29.867 
01:45	32.2	27.3	32.2	78	26.1	5	11	270	0.00	29.870 
01:50	32.1	27.2	32.1	78	26.0	5	11	270	0.00	29.875 
01:55	31.9	27.0	31.9	78	25.8	5	14	270	0.00	29.876 
02:00	31.8	26.8	31.8	77	25.4	5	9	270	0.00	29.877 
02:05	31.5	25.6	31.5	77	25.1	6	17	270	0.00	29.881 
02:10	31.3	25.4	31.3	77	24.9	6	15	270	0.00	29.887 
02:15	31.0	24.3	31.0	77	24.7	7	14	270	0.00	29.894 
02:20	31.0	25.0	31.0	77	24.7	6	18	270	0.00	29.897 
02:25	30.9	25.8	30.9	78	24.9	5	11	270	0.00	29.901 
02:30	30.9	26.8	30.9	78	24.9	4	9	292	0.00	29.902 
02:35	30.7	24.7	30.7	77	24.4	6	12	270	0.00	29.906 
02:40	30.7	24.7	30.7	77	24.4	6	12	270	0.00	29.911 
02:45	30.6	23.8	30.6	77	24.3	7	12	270	0.00	29.916 
02:50	30.6	25.4	30.6	77	24.3	5	10	270	0.00	29.917 
02:55	30.6	24.6	30.6	77	24.3	6	18	270	0.00	29.923 
03:00	30.4	25.2	30.4	77	24.1	5	11	270	0.00	29.921 
03:05	30.4	26.2	30.4	77	24.1	4	10	270	0.00	29.919 
03:10	30.3	25.1	30.3	77	24.0	5	11	270	0.00	29.930 
03:15	30.3	25.1	30.3	78	24.3	5	11	270	0.00	29.933 
03:20	30.1	25.9	30.1	78	24.1	4	9	270	0.00	29.934 
03:25	30.1	24.0	30.1	78	24.1	6	13	270	0.00	29.937 
03:30	30.1	24.8	30.1	79	24.4	5	13	270	0.00	29.944 
03:35	30.1	24.0	30.1	79	24.4	6	12	270	0.00	29.947 
03:40	30.1	24.0	30.1	78	24.1	6	12	292	0.00	29.949 
03:45	30.1	25.9	30.1	78	24.1	4	11	292	0.00	29.952 
03:50	30.1	24.8	30.1	79	24.4	5	14	270	0.00	29.953 
03:55	30.0	25.8	30.0	79	24.3	4	10	292	0.00	29.955 
04:00	30.0	24.7	30.0	79	24.3	5	14	270	0.00	29.955 
04:05	29.8	25.5	29.8	80	24.4	4	12	270	0.00	29.960 
04:10	29.7	24.4	29.7	81	24.6	5	9	270	0.00	29.964 
04:15	29.5	24.1	29.5	81	24.4	5	12	270	0.00	29.969 
04:20	29.5	24.1	29.5	81	24.4	5	11	270	0.00	29.977 
04:25	29.5	24.1	29.5	81	24.4	5	11	270	0.00	29.977 
04:30	29.5	25.2	29.5	80	24.1	4	14	270	0.00	29.979 
04:35	29.7	25.4	29.7	79	24.0	4	10	270	0.00	29.980 
04:40	29.7	29.7	29.7	80	24.3	3	6	270	0.00	29.984 
04:45	29.5	25.2	29.5	80	24.1	4	9	270	0.00	29.992 
04:50	29.5	25.2	29.5	80	24.1	4	8	270	0.00	29.993 
04:55	29.5	29.5	29.5	80	24.1	3	6	270	0.00	29.994 
05:00	29.4	25.1	29.4	79	23.7	4	11	270	0.00	29.995 
05:05	29.4	29.4	29.4	79	23.7	3	7	292	0.00	30.001 
05:10	29.4	25.1	29.4	79	23.7	4	10	270	0.00	30.002 
05:15	29.4	24.0	29.4	79	23.7	5	7	270	0.00	30.005 
05:20	29.4	25.1	29.4	79	23.7	4	9	270	0.00	30.008 
05:25	29.3	25.0	29.3	78	23.3	4	13	270	0.00	30.012 
05:30	29.3	25.0	29.3	79	23.6	4	7	270	0.00	30.014 
05:35	29.3	25.0	29.3	79	23.6	4	8	270	0.00	30.014 
05:40	29.3	29.3	29.3	79	23.6	3	7	270	0.00	30.015 
05:45	29.1	29.1	29.1	80	23.7	3	5	270	0.00	30.022 
05:50	29.1	24.7	29.1	80	23.7	4	6	270	0.00	30.025 
05:55	29.1	29.1	29.1	80	23.7	3	10	270	0.00	30.027 
06:00	29.0	24.6	29.0	80	23.6	4	10	270	0.00	30.028 
06:05	29.0	24.6	29.0	80	23.6	4	10	270	0.00	30.029 
06:10	29.0	24.6	29.0	80	23.6	4	7	270	0.00	30.031 
06:15	28.8	24.4	28.8	80	23.4	4	6	270	0.00	30.030 
06:20	28.8	24.4	28.8	80	23.4	4	7	270	0.00	30.030 
06:25	28.8	28.8	28.8	80	23.4	3	9	270	0.00	30.030 
06:30	28.8	28.8	28.8	80	23.4	3	7	270	0.00	30.032 
06:35	29.0	24.6	29.0	80	23.6	4	11	270	0.00	30.033 
06:40	29.0	29.0	29.0	80	23.6	3	7	270	0.00	30.040 
06:45	29.0	29.0	29.0	80	23.6	3	6	270	0.00	30.039 
06:50	29.1	29.1	29.1	80	23.7	3	5	270	0.00	30.043 
06:55	29.1	24.7	29.1	80	23.7	4	7	270	0.00	30.042 
07:00	29.3	29.3	29.3	79	23.6	3	6	270	0.00	30.043 
07:05	29.3	29.3	29.3	79	23.6	3	7	270	0.00	30.051 
07:10	29.3	29.3	29.3	80	23.9	3	7	270	0.00	30.053 
07:15	29.3	29.3	29.3	80	23.9	3	5	270	0.00	30.053 
07:20	29.4	29.4	29.4	80	24.0	3	6	248	0.00	30.054 
07:25	29.4	29.4	29.4	79	23.7	3	7	270	0.00	30.057 
07:30	29.4	29.4	29.4	79	23.7	3	7	270	0.00	30.061 
07:35	29.4	25.1	29.4	79	23.7	4	10	270	0.00	30.065 
07:40	29.4	29.4	29.4	79	23.7	3	10	270	0.00	30.068 
07:45	29.4	25.1	29.4	79	23.7	4	10	270	0.00	30.068 
07:50	29.3	29.3	29.3	79	23.6	3	7	270	0.00	30.070 
07:55	29.3	29.3	29.3	78	23.3	3	9	270	0.00	30.073 
08:00	29.1	29.1	29.1	79	23.4	3	11	270	0.00	30.074 
08:05	29.0	29.0	29.0	79	23.3	3	6	270	0.00	30.075 
08:10	29.0	29.0	29.0	79	23.3	3	8	270	0.00	30.076 
08:15	28.8	28.8	28.8	79	23.1	3	9	248	0.00	30.081 
08:20	28.7	28.7	28.7	79	23.0	3	9	270	0.00	30.083 
08:25	28.7	24.3	28.7	79	23.0	4	14	248	0.00	30.077 
08:30	28.7	28.7	28.7	79	23.0	2	5	248	0.00	30.083 
08:35	28.5	28.5	28.5	79	22.8	3	10	270	0.00	30.084 
08:40	28.5	28.5	28.5	79	22.8	3	10	270	0.00	30.084 
08:45	28.4	28.4	28.4	79	22.7	3	11	248	0.00	30.085 
08:50	28.4	28.4	28.4	79	22.7	3	7	270	0.00	30.084 
08:55	28.4	28.4	28.4	79	22.7	2	7	248	0.00	30.087 
09:00	28.5	28.5	28.5	79	22.8	3	6	248	0.00	30.089 
09:05	28.5	28.5	28.5	79	22.8	3	6	248	0.00	30.091 
09:10	28.4	23.9	28.4	79	22.7	4	11	248	0.00	30.090 
09:15	28.4	28.4	28.4	79	22.7	2	6	248	0.00	30.089 
09:20	28.4	28.4	28.4	79	22.7	3	7	248	0.00	30.090 
09:25	28.4	23.9	28.4	79	22.7	4	10	270	0.00	30.091 
09:30	28.4	22.8	28.4	79	22.7	5	10	270	0.00	30.092 
09:35	28.2	28.2	28.2	79	22.5	3	12	270	0.00	30.094 
09:40	28.2	28.2	28.2	79	22.5	3	12	270	0.00	30.099 
09:45	28.2	28.2	28.2	79	22.5	3	8	270	0.00	30.099 
09:50	28.1	23.6	28.1	79	22.4	4	13	270	0.00	30.106 
09:55	27.9	22.3	27.9	79	22.2	5	11	270	0.00	30.111 
10:00	27.8	22.1	27.8	78	21.8	5	9	270	0.00	30.120 
10:05	27.6	21.9	27.6	79	22.0	5	12	270	0.00	30.124 
10:10	27.5	22.9	27.5	79	21.9	4	10	270	0.00	30.125 
10:15	27.5	22.9	27.5	79	21.9	4	11	270	0.00	30.128 
10:20	27.5	22.9	27.5	79	21.9	4	11	270	0.00	30.129 
10:25	27.6	21.9	27.6	79	22.0	5	14	270	0.00	30.135 
10:30	27.6	21.9	27.6	79	22.0	5	13	270	0.00	30.137 
10:35	27.8	22.1	27.8	79	22.2	5	18	270	0.00	30.138 
10:40	27.6	23.0	27.6	78	21.7	4	10	270	0.00	30.139 
10:45	27.3	21.6	27.3	78	21.4	5	11	270	0.00	30.140 
10:50	27.3	22.6	27.3	78	21.4	4	10	270	0.00	30.147 
10:55	27.3	22.6	27.3	78	21.4	4	7	270	0.00	30.148 
11:00	27.3	22.6	27.3	79	21.7	4	14	270	0.00	30.155 
11:05	27.2	22.5	27.2	78	21.3	4	13	270	0.00	30.158 
11:10	26.7	20.9	26.7	78	20.8	5	13	270	0.00	30.160 
11:15	26.4	21.6	26.4	79	20.8	4	10	270	0.00	30.161 
11:20	26.4	21.6	26.4	79	20.8	4	10	270	0.00	30.161 
11:25	26.3	21.5	26.3	79	20.7	4	8	270	0.00	30.165 
11:30	26.3	19.4	26.3	79	20.7	6	16	270	0.00	30.164 
11:35	26.4	20.5	26.4	79	20.8	5	13	248	0.00	30.164 
11:40	26.3	21.5	26.3	79	20.7	4	13	270	0.00	30.171 
11:45	26.1	20.1	26.1	79	20.5	5	11	270	0.00	30.170 
11:50	26.0	20.0	26.0	79	20.4	5	11	270	0.00	30.171 
11:55	26.0	19.1	26.0	78	20.1	6	16	270	0.00	30.170 
12:00	26.0	21.1	26.0	79	20.4	4	11	270	0.00	30.171 
12:05	26.1	21.3	26.1	78	20.2	4	11	270	0.00	30.174 
12:10	26.4	21.6	26.4	78	20.5	4	11	270	0.00	30.170 
12:15	26.6	21.8	26.6	78	20.7	4	11	270	0.00	30.166 
12:20	26.7	26.7	26.7	78	20.8	3	6	270	0.00	30.163 
12:25	26.9	22.2	26.9	77	20.7	4	7	270	0.00	30.162 
12:30	27.0	22.3	27.0	77	20.8	4	6	270	0.00	30.159 
12:35	27.0	22.3	27.0	77	20.8	4	10	270	0.00	30.158 
12:40	27.2	22.5	27.2	77	21.0	4	11	270	0.00	30.155 
12:45	27.2	27.2	27.2	77	21.0	3	10	270	0.00	30.157 
12:50	27.3	27.3	27.3	77	21.1	3	9	270	0.00	30.158 
12:55	27.3	21.6	27.3	76	20.8	5	11	270	0.00	30.158 
13:00	27.3	21.6	27.3	76	20.8	5	11	270	0.00	30.159 
13:05	27.5	27.5	27.5	77	21.3	3	10	292	0.00	30.159 
13:10	27.6	27.6	27.6	77	21.4	3	7	270	0.00	30.158 
13:15	27.6	27.6	27.6	77	21.4	3	7	270	0.00	30.159 
13:20	27.5	21.8	27.5	76	20.9	5	11	270	0.00	30.160 
13:25	27.3	22.6	27.3	76	20.8	4	11	270	0.00	30.163 
13:30	27.2	22.5	27.2	77	21.0	4	11	270	0.00	30.164 
13:35	27.0	22.3	27.0	77	20.8	4	9	270	0.00	30.165 
13:40	27.0	22.3	27.0	77	20.8	4	15	270	0.00	30.163 
13:45	27.0	27.0	27.0	77	20.8	3	9	270	0.00	30.160 
13:50	27.0	27.0	27.0	77	20.8	3	6	270	0.00	30.162 
13:55	27.0	27.0	27.0	77	20.8	3	10	270	0.00	30.161 
14:00	27.2	22.5	27.2	77	21.0	4	9	270	0.00	30.161 
14:05	27.3	27.3	27.3	76	20.8	3	6	270	0.00	30.161 
14:10	27.5	27.5	27.5	76	20.9	3	6	270	0.00	30.156 
14:15	27.6	27.6	27.6	75	20.7	3	7	270	0.00	30.155 
14:20	27.8	27.8	27.8	75	20.9	2	6	270	0.00	30.159 
14:25	27.9	27.9	27.9	74	20.7	3	7	270	0.00	30.159 
14:30	28.1	28.1	28.1	74	20.9	3	11	270	0.00	30.159 
14:35	27.9	23.3	27.9	73	20.4	4	10	270	0.00	30.162 
14:40	28.1	28.1	28.1	74	20.9	2	5	270	0.00	30.164 
14:45	28.1	28.1	28.1	73	20.6	3	9	248	0.00	30.163 
14:50	28.1	28.1	28.1	73	20.6	3	8	270	0.00	30.162 
14:55	27.9	23.3	27.9	73	20.4	4	5	270	0.00	30.164 
15:00	27.9	23.3	27.9	73	20.4	4	9	270	0.00	30.160 
15:05	27.8	23.2	27.8	73	20.3	4	7	270	0.00	30.161 
15:10	27.6	23.0	27.6	73	20.1	4	6	270	0.00	30.159 
15:15	27.5	22.9	27.5	73	20.0	4	12	270	0.00	30.160 
15:20	27.5	27.5	27.5	73	20.0	3	8	270	0.00	30.161 
15:25	27.5	27.5	27.5	74	20.3	3	5	270	0.00	30.164 
15:30	27.5	27.5	27.5	74	20.3	3	7	270	0.00	30.165 
15:35	27.5	27.5	27.5	73	20.0	3	12	270	0.00	30.171 
15:40	27.5	22.9	27.5	73	20.0	4	9	270	0.00	30.165 
15:45	27.5	27.5	27.5	73	20.0	3	6	270	0.00	30.170 
15:50	27.5	22.9	27.5	73	20.0	4	9	270	0.00	30.173 
15:55	27.5	27.5	27.5	73	20.0	3	6	270	0.00	30.173 
16:00	27.6	23.0	27.6	73	20.1	4	9	270	0.00	30.175 
16:05	27.6	27.6	27.6	73	20.1	3	7	270	0.00	30.177 
16:10	27.6	27.6	27.6	73	20.1	3	6	270	0.00	30.177 
16:15	27.6	23.0	27.6	73	20.1	4	7	270	0.00	30.179 
16:20	27.8	27.8	27.8	73	20.3	3	7	270	0.00	30.180 
16:25	27.8	23.2	27.8	73	20.3	4	6	270	0.00	30.179 
16:30	27.8	23.2	27.8	72	20.0	4	7	270	0.00	30.179 
16:35	27.8	23.2	27.8	72	20.0	4	10	270	0.00	30.180 
16:40	27.8	22.1	27.8	71	19.6	5	10	270	0.00	30.180 
16:45	27.9	23.3	27.9	71	19.7	4	9	270	0.00	30.182 
16:50	27.9	27.9	27.9	71	19.7	3	8	270	0.00	30.179 
16:55	28.1	28.1	28.1	70	19.6	3	7	270	0.00	30.179 
17:00	28.1	23.6	28.1	70	19.6	4	9	270	0.00	30.179 
17:05	28.1	28.1	28.1	70	19.6	3	5	270	0.00	30.179 
17:10	28.1	28.1	28.1	71	19.9	2	5	270	0.00	30.180 
17:15	28.1	28.1	28.1	70	19.6	3	7	270	0.00	30.180 
17:20	27.9	27.9	27.9	70	19.4	3	8	270	0.00	30.179 
17:25	27.9	27.9	27.9	70	19.4	3	7	270	0.00	30.178 
17:30	27.9	27.9	27.9	70	19.4	2	5	270	0.00	30.179 
17:35	27.9	27.9	27.9	70	19.4	2	5	270	0.00	30.180 
17:40	27.9	27.9	27.9	70	19.4	2	4	270	0.00	30.179 
17:45	27.9	27.9	27.9	70	19.4	3	5	270	0.00	30.179 
17:50	27.9	27.9	27.9	69	19.1	3	9	270	0.00	30.179 
17:55	27.9	27.9	27.9	69	19.1	2	4	270	0.00	30.178 
18:00	28.1	28.1	28.1	69	19.3	3	9	270	0.00	30.179 
18:05	28.1	28.1	28.1	69	19.3	3	7	270	0.00	30.181 
18:10	28.1	28.1	28.1	69	19.3	2	5	270	0.00	30.179 
18:15	28.1	28.1	28.1	69	19.3	2	5	292	0.00	30.179 
18:20	28.1	28.1	28.1	69	19.3	2	4	270	0.00	30.180 
18:25	28.1	28.1	28.1	69	19.3	3	9	270	0.00	30.182 
18:30	28.1	28.1	28.1	68	18.9	2	6	315	0.00	30.186 
18:35	28.1	28.1	28.1	69	19.3	2	4	270	0.00	30.189 
18:40	28.1	28.1	28.1	69	19.3	2	4	248	0.00	30.187 
18:45	28.1	28.1	28.1	69	19.3	2	6	248	0.00	30.187 
18:50	28.1	28.1	28.1	69	19.3	2	5	248	0.00	30.181 
18:55	28.1	28.1	28.1	69	19.3	1	4	270	0.00	30.181 
19:00	28.1	28.1	28.1	69	19.3	2	5	248	0.00	30.181 
19:05	28.1	28.1	28.1	68	18.9	1	4	270	0.00	30.179 
19:10	28.1	28.1	28.1	69	19.3	1	4	270	0.00	30.178 
19:15	28.1	28.1	28.1	68	18.9	1	3	315	0.00	30.179 
19:20	28.1	28.1	28.1	68	18.9	2	5	270	0.00	30.178 
19:25	28.2	28.2	28.2	68	19.0	2	4	270	0.00	30.178 
19:30	28.2	28.2	28.2	68	19.0	1	4	270	0.00	30.176 
19:35	28.2	28.2	28.2	68	19.0	1	2	248	0.00	30.175 
19:40	28.2	28.2	28.2	68	19.0	1	4	248	0.00	30.177 
19:45	28.2	28.2	28.2	68	19.0	1	3	248	0.00	30.175 
19:50	28.2	28.2	28.2	68	19.0	1	6	248	0.00	30.174 
19:55	28.4	28.4	28.4	68	19.2	1	4	248	0.00	30.172 
20:00	28.4	28.4	28.4	68	19.2	1	3	248	0.00	30.171 
20:05	28.5	28.5	28.5	67	19.0	1	5	248	0.00	30.166 
20:10	28.5	28.5	28.5	67	19.0	1	5	292	0.00	30.162 
20:15	28.5	28.5	28.5	67	19.0	2	5	270	0.00	30.162 
20:20	28.5	28.5	28.5	67	19.0	2	7	248	0.00	30.161 
20:25	28.7	28.7	28.7	67	19.2	1	3	248	0.00	30.158 
20:30	28.7	28.7	28.7	68	19.5	1	6	248	0.00	30.152 
20:35	28.7	28.7	28.7	67	19.2	2	3	248	0.00	30.153 
20:40	28.7	28.7	28.7	67	19.2	2	4	248	0.00	30.148 
20:45	28.7	28.7	28.7	67	19.2	1	4	248	0.00	30.145 
20:50	28.8	28.8	28.8	67	19.2	1	4	248	0.00	30.145 
20:55	28.8	28.8	28.8	67	19.2	1	3	270	0.00	30.141 
21:00	28.8	28.8	28.8	67	19.2	0	3	248	0.00	30.141 
21:05	28.8	28.8	28.8	67	19.2	1	4	248	0.00	30.134 
21:10	28.8	28.8	28.8	67	19.2	1	3	270	0.00	30.132 
21:15	28.8	28.8	28.8	68	19.6	1	6	248	0.00	30.132 
21:20	28.7	28.7	28.7	68	19.5	0	3	248	0.00	30.129 
21:25	28.7	28.7	28.7	68	19.5	1	5	248	0.00	30.126 
21:30	28.7	28.7	28.7	69	19.8	1	3	248	0.00	30.125 
21:35	28.5	28.5	28.5	69	19.6	1	4	248	0.00	30.118 
21:40	28.5	28.5	28.5	68	19.3	1	4	248	0.00	30.116 
21:45	28.5	28.5	28.5	68	19.3	2	4	270	0.00	30.117 
21:50	28.5	28.5	28.5	68	19.3	1	4	270	0.00	30.117 
21:55	28.5	28.5	28.5	68	19.3	1	3	248	0.00	30.115 
22:00	28.5	28.5	28.5	68	19.3	1	5	248	0.00	30.113 
22:05	28.4	28.4	28.4	68	19.2	1	3	270	0.00	30.113 
22:10	28.4	28.4	28.4	69	19.5	1	3	248	0.00	30.111 
22:15	28.4	28.4	28.4	69	19.5	1	3	248	0.00	30.109 
22:20	28.2	28.2	28.2	69	19.4	0	1	248	0.00	30.111 
22:25	28.2	28.2	28.2	70	19.7	1	3	248	0.00	30.113 
22:30	28.2	28.2	28.2	70	19.7	1	3	248	0.00	30.112 
22:35	28.1	28.1	28.1	70	19.6	0	3	248	0.00	30.107 
22:40	28.1	28.1	28.1	70	19.6	1	3	270	0.00	30.105 
22:45	28.1	28.1	28.1	71	19.9	0	1	270	0.00	30.102 
22:50	27.9	27.9	27.9	71	19.7	1	4	270	0.00	30.104 
22:55	28.1	28.1	28.1	71	19.9	1	4	248	0.00	30.105 
23:00	28.1	28.1	28.1	71	19.9	1	3	248	0.00	30.106 
23:05	28.1	28.1	28.1	71	19.9	1	3	248	0.00	30.110 
23:10	28.1	28.1	28.1	71	19.9	1	3	248	0.00	30.102 
23:15	28.1	28.1	28.1	71	19.9	1	4	248	0.00	30.097 
23:20	28.1	28.1	28.1	72	20.3	0	3	248	0.00	30.095 
23:25	27.9	27.9	27.9	72	20.1	1	3	248	0.00	30.097 
23:30	27.9	27.9	27.9	72	20.1	1	4	270	0.00	30.097 
23:35	27.9	27.9	27.9	72	20.1	1	3	270	0.00	30.093 
23:40	27.9	27.9	27.9	72	20.1	1	3	248	0.00	30.090 
23:45	27.9	27.9	27.9	72	20.1	1	4	248	0.00	30.094 
23:50	27.9	27.9	27.9	73	20.4	0	3	248	0.00	30.091 
23:55	27.9	27.9	27.9	73	20.4	1	4	248	0.00	30.088 

CoCoRaHS
IN-AL-39
A2 Web Hosting
Creative Commons License
GoDaddy
Look for:

loaded 2017-12-11 14:17:51 • last modified 2010-11-18 10:43:29
Privacy PolicyDisclaimer
• wx.awcolley.com is powered by PmWiki v.2002016 •
• all content (unless otherwise noted) © 2017 A W Colley